createdAt,value
2019-03-24T05:03:44.051Z,102811.51
2019-03-24T05:07:11.884Z,102816.76
2019-03-24T05:10:39.700Z,102807.98
2019-03-24T05:14:07.534Z,102801.21
2019-03-24T05:17:35.376Z,102807.14
2019-03-24T05:21:03.196Z,102809.65
2019-03-24T05:24:31.033Z,102802.59
2019-03-24T05:27:58.871Z,102802.11
2019-03-24T05:31:26.712Z,102802.44
2019-03-24T05:34:54.548Z,102796.26
2019-03-24T05:38:22.387Z,102790.79
2019-03-24T05:41:51.211Z,102788.46
2019-03-24T05:45:19.041Z,102797.41
2019-03-24T05:48:46.872Z,102789.48
2019-03-24T05:52:15.729Z,102781.1
2019-03-24T05:55:43.556Z,102777.67
2019-03-24T05:59:11.392Z,102771.35
2019-03-24T06:02:39.207Z,102767.45
2019-03-24T06:06:07.052Z,102761.14
2019-03-24T06:09:34.888Z,102754.03
2019-03-24T06:13:02.706Z,102753
2019-03-24T06:16:30.566Z,102748.17
2019-03-24T06:19:58.396Z,102754.76
2019-03-24T06:23:26.474Z,102744.89
2019-03-24T06:26:54.331Z,102746.91
2019-03-24T06:30:22.183Z,102758.39
2019-03-24T06:33:50.045Z,102758.15
2019-03-24T06:37:17.918Z,102760.15
2019-03-24T06:40:45.762Z,102758.57
2019-03-24T06:44:13.652Z,102761.43
2019-03-24T06:47:41.474Z,102758.79
2019-03-24T06:51:09.369Z,102755.14
2019-03-24T06:54:37.199Z,102759.36
2019-03-24T06:58:05.030Z,102758.28
2019-03-24T07:01:32.882Z,102747.2
2019-03-24T07:05:00.717Z,102744.9
2019-03-24T07:08:28.533Z,102745.85
2019-03-24T07:11:56.392Z,102739.57
2019-03-24T07:15:25.218Z,102735.68
2019-03-24T07:18:53.054Z,102741.46
2019-03-24T07:22:20.907Z,102736.43
2019-03-24T07:25:48.768Z,102741.03
2019-03-24T07:29:16.589Z,102739.68
2019-03-24T07:32:44.431Z,102739.81
2019-03-24T07:36:12.269Z,102738.75
2019-03-24T07:39:41.078Z,102740.78
2019-03-24T07:43:08.921Z,102742.14
2019-03-24T07:46:36.766Z,102739.46
2019-03-24T07:50:04.602Z,102743.8
2019-03-24T07:53:33.437Z,102735.65
2019-03-24T07:57:02.250Z,102725.42
2019-03-24T08:00:30.271Z,102726.54
2019-03-24T08:03:58.098Z,102726.06
2019-03-24T08:07:25.951Z,102724.9
2019-03-24T08:10:53.788Z,102726.95
2019-03-24T08:14:21.628Z,102719.37
2019-03-24T08:17:49.469Z,102716.57
2019-03-24T08:21:17.296Z,102715.25
2019-03-24T08:24:45.147Z,102717.12
2019-03-24T08:28:13.013Z,102711.18
2019-03-24T08:31:40.800Z,102707.48
2019-03-24T08:35:08.636Z,102704.74
2019-03-24T08:38:36.548Z,102706.1
2019-03-24T08:42:04.387Z,102709.54
2019-03-24T08:45:32.230Z,102706.12
2019-03-24T08:49:00.055Z,102694.17
2019-03-24T08:52:27.889Z,102688.57
2019-03-24T08:55:55.722Z,102692
2019-03-24T08:59:23.547Z,102693.37
2019-03-24T09:02:51.382Z,102697.57
2019-03-24T09:06:19.221Z,102683.8
2019-03-24T09:09:47.086Z,102671.37
2019-03-24T09:13:14.925Z,102666.57
2019-03-24T09:16:42.766Z,102659.49
2019-03-24T09:20:10.577Z,102653.35
2019-03-24T09:23:39.407Z,102637.32
2019-03-24T09:27:08.232Z,102640.93
2019-03-24T09:30:36.058Z,102645.25
2019-03-24T09:34:03.884Z,102626.76
2019-03-24T09:37:31.725Z,102624.04
2019-03-24T09:40:59.545Z,102621.26
2019-03-24T09:44:27.382Z,102618.23
2019-03-24T09:47:55.212Z,102610.4
2019-03-24T09:51:23.035Z,102612.1
2019-03-24T09:54:50.880Z,102611.5
2019-03-24T09:58:18.721Z,102608.01
2019-03-24T10:01:46.555Z,102613.06
2019-03-24T10:05:14.415Z,102630.04
2019-03-24T10:08:47.114Z,102620.46
2019-03-24T10:12:14.040Z,102616.87
2019-03-24T10:15:41.915Z,102616.16
2019-03-24T10:19:14.116Z,102615.19
2019-03-24T10:22:40.583Z,102620.78
2019-03-24T10:26:08.430Z,102618.96
2019-03-24T10:29:36.276Z,102613.04
2019-03-24T10:33:04.133Z,102602.68
2019-03-24T10:36:31.965Z,102601.37
2019-03-24T10:40:00.847Z,102601.32
2019-03-24T10:43:28.684Z,102597.25
2019-03-24T10:46:56.527Z,102596.89
2019-03-24T10:50:24.353Z,102587.9
2019-03-24T10:53:52.180Z,102591.4
2019-03-24T10:57:20.001Z,102586.04
2019-03-24T11:00:47.828Z,102571.59
2019-03-24T11:04:16.659Z,102561.78
2019-03-24T11:07:44.541Z,102553.14
2019-03-24T11:11:12.368Z,102548.46
2019-03-24T11:14:40.224Z,102544.16
2019-03-24T11:18:08.054Z,102537.64
2019-03-24T11:21:35.865Z,102529.58
2019-03-24T11:25:03.697Z,102522.77
2019-03-24T11:28:32.526Z,102510.71
2019-03-24T11:32:00.469Z,102500.51
2019-03-24T11:35:28.430Z,102513.46
2019-03-24T11:38:56.287Z,102505.69
2019-03-24T11:42:25.209Z,102500.77
2019-03-24T11:45:53.031Z,102496.49
2019-03-24T11:49:20.874Z,102486.17
2019-03-24T11:52:48.718Z,102490.59
2019-03-24T11:56:16.543Z,102473.9
2019-03-24T11:59:44.458Z,102479.31
2019-03-24T12:03:12.297Z,102481.64
2019-03-24T12:06:40.132Z,102481.59
2019-03-24T12:10:07.974Z,102466.04
2019-03-24T12:13:35.819Z,102453.91
2019-03-24T12:17:03.643Z,102455.14
2019-03-24T12:20:31.490Z,102454.9
2019-03-24T12:23:59.335Z,102452.97
2019-03-24T12:27:27.196Z,102453.93
2019-03-24T12:30:55.035Z,102442.85
2019-03-24T12:34:23.954Z,102438.39
2019-03-24T12:37:51.914Z,102431.44
2019-03-24T12:41:19.738Z,102419.5
2019-03-24T12:44:48.545Z,102420.92
2019-03-24T12:48:24.438Z,102422.06
2019-03-24T12:51:52.216Z,102428.96
2019-03-24T12:55:20.056Z,102416.23
2019-03-24T12:58:47.912Z,102414.17
2019-03-24T13:02:15.749Z,102409.86
2019-03-24T13:05:43.588Z,102409.48
2019-03-24T13:09:11.438Z,102387.71
2019-03-24T13:12:39.291Z,102378.82
2019-03-24T13:16:07.110Z,102395.43
2019-03-24T13:19:36.297Z,102395.6
2019-03-24T13:23:03.791Z,102406.21
2019-03-24T13:26:31.620Z,102397.47
2019-03-24T13:29:59.483Z,102396.14
2019-03-24T13:33:27.544Z,102378.04
2019-03-24T13:36:55.435Z,102392.74
2019-03-24T13:40:23.202Z,102377.14
2019-03-24T13:43:51.042Z,102378.35
2019-03-24T13:47:18.891Z,102369.18
2019-03-24T13:50:46.739Z,102365.08
2019-03-24T13:54:14.586Z,102364.7
2019-03-24T13:57:42.434Z,102355.44
2019-03-24T14:01:10.340Z,102343.92
2019-03-24T14:04:38.196Z,102339.87
2019-03-24T14:08:06.055Z,102337.21
2019-03-24T14:11:33.896Z,102328.28
2019-03-24T14:15:02.727Z,102321.62
2019-03-24T14:18:30.580Z,102319.21
2019-03-24T14:21:58.419Z,102316.17
2019-03-24T14:25:27.238Z,102295.22
2019-03-24T14:28:55.093Z,102288.65
2019-03-24T14:32:22.936Z,102278.96
2019-03-24T14:35:51.762Z,102280.98
2019-03-24T14:39:19.603Z,102275.14
2019-03-24T14:42:48.442Z,102277.14
2019-03-24T14:46:16.286Z,102265.34
2019-03-24T14:49:44.140Z,102253.52
2019-03-24T14:53:11.991Z,102260.11
2019-03-24T14:56:39.827Z,102266.43
2019-03-24T15:00:07.674Z,102253.48
2019-03-24T15:03:35.537Z,102246.95
2019-03-24T15:07:03.374Z,102239.82
2019-03-24T15:10:31.206Z,102247.05
2019-03-24T15:13:59.056Z,102240.9
2019-03-24T15:17:27.889Z,102239.7
2019-03-24T15:21:05.381Z,102218.76
2019-03-24T15:24:29.521Z,102220.85
2019-03-24T15:27:57.365Z,102226.54
2019-03-24T15:31:25.228Z,102204.54
2019-03-24T15:34:53.060Z,102199.12
2019-03-24T15:38:20.916Z,102197.92
2019-03-24T15:41:48.753Z,102192.42
2019-03-24T15:45:16.598Z,102183.73
2019-03-24T15:48:44.444Z,102184.32
2019-03-24T15:52:13.299Z,102177.21
2019-03-24T15:55:41.142Z,102171.03
2019-03-24T15:59:08.993Z,102170.54
2019-03-24T16:02:36.821Z,102170.3
2019-03-24T16:06:04.665Z,102165.85
2019-03-24T16:09:32.513Z,102159.06
2019-03-24T16:13:00.360Z,102164.43
2019-03-24T16:16:28.231Z,102152.5
2019-03-24T16:19:56.104Z,102147.37
2019-03-24T16:23:24.065Z,102148.13
2019-03-24T16:26:51.894Z,102139.25
2019-03-24T16:30:19.743Z,102136.53
2019-03-24T16:33:47.690Z,102125.71
2019-03-24T16:37:15.511Z,102122.29
2019-03-24T16:40:44.336Z,102117.34
2019-03-24T16:44:12.186Z,102116.42
2019-03-24T16:47:40.003Z,102110.25
2019-03-24T16:51:07.837Z,102104.4
2019-03-24T16:54:36.693Z,102097.26
2019-03-24T16:58:04.514Z,102093.73
2019-03-24T17:01:33.179Z,102088.9
2019-03-24T17:05:01.037Z,102077
2019-03-24T17:08:28.874Z,102069.76
2019-03-24T17:11:57.705Z,102072.5
2019-03-24T17:15:25.540Z,102071.56
2019-03-24T17:18:53.387Z,102068.42
2019-03-24T17:22:21.239Z,102059.63
2019-03-24T17:25:50.071Z,102056.94
2019-03-24T17:29:17.909Z,102046.17
2019-03-24T17:32:45.750Z,102042.14
2019-03-24T17:36:13.594Z,102033.28
2019-03-24T17:39:41.467Z,102037.29
2019-03-24T17:43:10.554Z,102023.07
2019-03-24T17:46:38.391Z,102019.61
2019-03-24T17:50:06.793Z,102013.91
2019-03-24T17:53:35.611Z,102011.04
2019-03-24T17:57:03.453Z,102007.71
2019-03-24T18:00:33.318Z,102011.46
2019-03-24T18:04:00.141Z,102000.92
2019-03-24T18:07:28.662Z,101994.82
2019-03-24T18:10:56.530Z,101990.34
2019-03-24T18:14:24.350Z,101990.17
2019-03-24T18:17:52.215Z,101993.17
2019-03-24T18:21:20.034Z,101989.06
2019-03-24T18:24:47.885Z,101982.51
2019-03-24T18:28:15.719Z,101976.39
2019-03-24T18:31:43.597Z,101977.52
2019-03-24T18:35:12.394Z,101979.91
2019-03-24T18:38:40.267Z,101969.04
2019-03-24T18:42:08.110Z,101965.92
2019-03-24T18:45:35.979Z,101959.39
2019-03-24T18:49:03.802Z,101948.99
2019-03-24T18:52:31.652Z,101952.39
2019-03-24T18:55:59.485Z,101943.75
2019-03-24T18:59:27.343Z,101939.42
2019-03-24T19:02:56.214Z,101938.1
2019-03-24T19:06:24.091Z,101932.1
2019-03-24T19:09:52.051Z,101933.59
2019-03-24T19:13:19.905Z,101925.33
2019-03-24T19:16:47.876Z,101916.61
2019-03-24T19:20:15.718Z,101909.48
2019-03-24T19:23:44.310Z,101901.06
2019-03-24T19:27:12.192Z,101896.96
2019-03-24T19:30:40.069Z,101891.93
2019-03-24T19:34:07.919Z,101887.21
2019-03-24T19:37:35.870Z,101879.58
2019-03-24T19:41:03.746Z,101876.4
2019-03-24T19:44:31.637Z,101873.95
2019-03-24T19:47:59.529Z,101875.97
2019-03-24T19:51:29.439Z,101876.09
2019-03-24T19:54:58.280Z,101874.4
2019-03-24T19:58:27.216Z,101873.34
2019-03-24T20:01:55.101Z,101860.89
2019-03-24T20:05:23.143Z,101857.89
2019-03-24T20:08:53.001Z,101846.9
2019-03-24T20:12:20.919Z,101845.17
2019-03-24T20:15:48.850Z,101835.42
2019-03-24T20:19:16.725Z,101828.36
2019-03-24T20:22:55.488Z,101826.98
2019-03-24T20:26:17.446Z,101818.89
2019-03-24T20:29:45.301Z,101816.98
2019-03-24T20:33:13.252Z,101816.57
2019-03-24T20:36:41.084Z,101807.6
2019-03-24T20:40:08.937Z,101799.99
2019-03-24T20:43:36.843Z,101792.97
2019-03-24T20:47:04.698Z,101776.93
2019-03-24T20:50:32.540Z,101770.44
2019-03-24T20:54:00.453Z,101767.95
2019-03-24T20:57:28.288Z,101755.96
2019-03-24T21:00:56.107Z,101758.9
2019-03-24T21:04:23.962Z,101749.43
2019-03-24T21:07:51.790Z,101740.7
2019-03-24T21:11:19.611Z,101734
2019-03-24T21:14:47.463Z,101726.38
2019-03-24T21:18:15.302Z,101723.53
2019-03-24T21:21:43.113Z,101722.78
2019-03-24T21:25:10.934Z,101715.97
2019-03-24T21:28:38.783Z,101709.07
2019-03-24T21:32:06.599Z,101700.8
2019-03-24T21:35:35.445Z,101687.34
2019-03-24T21:39:03.268Z,101685.17
2019-03-24T21:42:31.091Z,101677.64
2019-03-24T21:45:58.923Z,101678
2019-03-24T21:49:26.747Z,101676.75
2019-03-24T21:52:54.560Z,101673.42
2019-03-24T21:56:23.391Z,101662.68
2019-03-24T21:59:51.222Z,101660.94
2019-03-24T22:03:20.048Z,101659.67
2019-03-24T22:06:48.871Z,101658.56
2019-03-24T22:10:16.692Z,101644.41
2019-03-24T22:13:44.675Z,101636.87
2019-03-24T22:17:13.485Z,101635.11
2019-03-24T22:20:48.677Z,101625.37
2019-03-24T22:24:14.157Z,101625.21
2019-03-24T22:27:42.930Z,101617.8
2019-03-24T22:31:11.756Z,101613.97
2019-03-24T22:34:39.591Z,101604.81
2019-03-24T22:38:07.422Z,101597.1
2019-03-24T22:41:35.239Z,101592.75
2019-03-24T22:45:03.113Z,101584.56
2019-03-24T22:48:30.953Z,101573.96
2019-03-24T22:52:07.015Z,101561.7
2019-03-24T22:55:31.557Z,101554.13
2019-03-24T22:59:00.312Z,101552.82
